Time;durP1;ratioP1;P1;durP2;ratioP2;P2;SDS_P1;SDS_P2;PMS_P1;PMS_P2;Temp;Humidity;BMP_temperature;BMP_pressure;BME280_temperature;BME280_humidity;BME280_pressure;Samples;Min_cycle;Max_cycle;Signal;HPM_P1;HPM_P2
2023/07/31 00:01:33;;;;;;;32.67;9.47;;;;;;;17.24;100.00;45198.25;5084170;28;20103;-72
2023/07/31 00:03:58;;;;;;;39.47;11.87;;;;;;;17.22;100.00;46594.53;5079933;28;20493;-72
2023/07/31 00:06:24;;;;;;;46.83;11.50;;;;;;;17.20;100.00;48341.38;5087238;28;20094;-72
2023/07/31 00:08:49;;;;;;;42.67;9.93;;;;;;;17.21;100.00;49741.94;5078809;28;20099;-74
2023/07/31 00:11:14;;;;;;;40.37;10.77;;;;;;;17.21;100.00;52542.06;5093291;28;20020;-72
2023/07/31 00:13:40;;;;;;;41.33;9.53;;;;;;;17.23;100.00;54995.19;5088732;28;20158;-73
2023/07/31 00:16:05;;;;;;;49.07;10.77;;;;;;;17.26;100.00;57451.38;5071800;28;20040;-72
2023/07/31 00:18:31;;;;;;;38.97;9.67;;;;;;;17.23;100.00;59202.28;5091122;28;20032;-72
2023/07/31 00:20:56;;;;;;;41.60;10.43;;;;;;;17.27;100.00;60258.69;5089282;28;20034;-72
2023/07/31 00:23:22;;;;;;;36.37;12.03;;;;;;;17.24;100.00;61307.78;5090124;28;20104;-72
2023/07/31 00:25:47;;;;;;;39.03;11.10;;;;;;;17.23;100.00;62008.66;5092621;28;20052;-71
2023/07/31 00:28:12;;;;;;;40.67;10.40;;;;;;;17.24;100.00;63413.91;5088398;28;20047;-76
2023/07/31 00:30:38;;;;;;;35.40;9.33;;;;;;;17.20;100.00;64463.06;5073437;28;20581;-75
2023/07/31 00:33:03;;;;;;;35.03;9.67;;;;;;;17.23;100.00;64817.53;5073221;28;20486;-76
2023/07/31 00:35:29;;;;;;;37.03;9.30;;;;;;;17.25;100.00;65171.53;5071390;28;20024;-76
2023/07/31 00:37:54;;;;;;;42.50;10.70;;;;;;;17.20;100.00;66570.72;5085408;28;20081;-75
2023/07/31 00:40:19;;;;;;;49.13;10.87;;;;;;;17.24;100.00;68333.09;5085929;28;20085;-75
2023/07/31 00:42:45;;;;;;;40.80;10.53;;;;;;;17.29;100.00;71151.91;5088893;28;20093;-75
2023/07/31 00:45:10;;;;;;;55.63;11.63;;;;;;;17.27;100.00;73964.97;5084997;28;20055;-74
2023/07/31 00:47:35;;;;;;;42.57;11.73;;;;;;;17.30;100.00;77138.69;5086820;28;20056;-75
2023/07/31 00:50:01;;;;;;;47.47;11.33;;;;;;;17.33;100.00;79257.34;5090026;28;20084;-74
2023/07/31 00:52:26;;;;;;;41.60;11.77;;;;;;;17.32;100.00;80667.16;5085184;28;20039;-76
2023/07/31 00:54:52;;;;;;;42.00;11.10;;;;;;;17.35;100.00;79613.25;5086604;28;20032;-75
2023/07/31 00:57:17;;;;;;;43.17;10.67;;;;;;;17.33;100.00;77494.94;5083643;28;20024;-75
2023/07/31 00:59:43;;;;;;;42.03;10.97;;;;;;;17.36;100.00;76089.41;5086968;28;20027;-75
2023/07/31 01:02:09;;;;;;;43.93;11.23;;;;;;;17.30;100.00;76434.03;5086726;28;20024;-73
2023/07/31 01:04:34;;;;;;;38.50;10.87;;;;;;;17.29;100.00;77489.75;5090427;28;20108;-75
2023/07/31 01:07:26;;;;;;;40.83;12.27;;;;;;;17.27;100.00;77135.44;5084977;28;20433;-74
2023/07/31 01:10:08;;;;;;;28.98;9.23;;;;;;;17.24;100.00;75018.16;5068876;28;20039;-75
2023/07/31 01:12:34;;;;;;;38.92;10.85;;;;;;;17.21;100.00;74661.66;5089632;28;20028;-75
2023/07/31 01:18:21;;;;;;;34.45;10.13;;;;;;;17.13;100.00;72188.13;5084264;28;20051;-75
2023/07/31 01:20:57;;;;;;;34.27;10.17;;;;;;;17.11;100.00;72185.69;5084972;28;20020;-75
2023/07/31 01:23:43;;;;;;;40.67;9.07;;;;;;;17.17;100.00;73248.63;5090613;28;20051;-74
2023/07/31 01:26:16;;;;;;;35.40;8.77;;;;;;;17.17;100.00;77474.16;5065612;28;20504;-75
2023/07/31 01:29:01;;;;;;;29.08;9.82;;;;;;;17.19;100.00;81001.56;5087580;28;20487;-74
2023/07/31 01:31:31;;;;;;;36.10;9.63;;;;;;;17.21;100.00;83826.41;5088710;28;20032;-75
2023/07/31 01:34:01;;;;;;;31.27;9.38;;;;;;;17.16;100.00;88409.97;5089590;28;20054;-76
2023/07/31 01:36:30;;;;;;;36.05;9.32;;;;;;;17.19;100.00;86647.66;5091342;28;20471;-76
2023/07/31 01:39:00;;;;;;;36.40;8.15;;;;;;;17.16;100.00;86290.94;5067609;28;20024;-72
2023/07/31 01:41:26;;;;;;;32.50;9.77;;;;;;;17.16;100.00;86644.03;5083839;28;20028;-73
2023/07/31 01:43:51;;;;;;;29.00;9.93;;;;;;;17.17;100.00;89118.06;5079726;28;20069;-72
2023/07/31 01:46:16;;;;;;;30.43;8.33;;;;;;;17.18;100.00;89826.31;5084385;28;20028;-72
2023/07/31 01:48:42;;;;;;;31.00;9.63;;;;;;;17.13;100.00;91232.53;5073034;28;20023;-72
2023/07/31 01:51:07;;;;;;;28.87;8.80;;;;;;;17.11;100.00;91583.00;5087303;28;20073;-71
2023/07/31 01:53:33;;;;;;;32.77;9.50;;;;;;;17.11;100.00;91936.53;5086944;28;20031;-71
2023/07/31 01:55:59;;;;;;;31.33;8.90;;;;;;;17.14;100.00;91940.38;5061861;28;20024;-70
2023/07/31 01:58:24;;;;;;;29.90;9.43;;;;;;;17.17;100.00;94067.03;5086850;28;20046;-72
2023/07/31 02:00:50;;;;;;;36.13;10.07;;;;;;;17.13;100.00;96184.56;5071999;28;20031;-71
2023/07/31 02:03:15;;;;;;;29.30;10.10;;;;;;;17.10;100.00;96532.88;5085436;28;20050;-72
2023/07/31 02:05:45;;;;;;;36.00;10.30;;;;;;;17.09;100.00;96177.34;5081646;28;20033;-72
2023/07/31 02:08:10;;;;;;;38.65;10.23;;;;;;;17.13;100.00;98308.72;5086373;28;20020;-71
2023/07/31 02:10:36;;;;;;;38.87;10.53;;;;;;;17.09;100.00;98301.34;5083883;28;20024;-71
2023/07/31 02:13:03;;;;;;;38.73;9.63;;;;;;;17.07;100.00;99360.44;5089516;28;20032;-71
2023/07/31 02:15:29;;;;;;;38.20;10.65;;;;;;;17.07;100.00;100423.09;5087747;28;20043;-70
2023/07/31 02:17:55;;;;;;;40.03;9.57;;;;;;;17.04;100.00;99001.31;5082304;28;20115;-73
2023/07/31 02:20:20;;;;;;;43.20;9.43;;;;;;;17.05;100.00;98295.59;5088466;28;20395;-71
2023/07/31 02:22:45;;;;;;;46.87;12.17;;;;;;;17.03;100.00;97583.44;5084703;28;20039;-72
2023/07/31 02:25:11;;;;;;;30.00;10.20;;;;;;;16.99;100.00;101472.47;5060130;28;20033;-72
2023/07/31 02:27:36;;;;;;;42.27;12.40;;;;;;;17.04;100.00;106090.00;5063842;28;20024;-72
2023/07/31 02:30:02;;;;;;;30.77;9.43;;;;;;;17.07;100.00;111065.03;5082326;28;20036;-71
2023/07/31 02:32:27;;;;;;;38.50;10.70;;;;;;;17.03;100.00;115321.88;5083339;28;20163;-72
2023/07/31 02:34:53;;;;;;;35.90;10.07;;;;;;;17.01;100.00;117096.03;5071823;28;20104;-72
2023/07/31 02:37:18;;;;;;;33.57;9.77;;;;;;;17.00;100.00;122432.78;5067435;28;20463;-72
2023/07/31 02:39:43;;;;;;;33.33;9.20;;;;;;;17.01;100.00;125642.47;5086065;28;20036;-73
2023/07/31 02:42:09;;;;;;;30.10;10.20;;;;;;;17.01;100.00;127780.53;5064199;28;20124;-72
2023/07/31 02:44:34;;;;;;;32.53;9.03;;;;;;;16.98;100.00;128487.41;5079602;28;20109;-73
2023/07/31 02:47:00;;;;;;;33.03;10.37;;;;;;;16.97;100.00;131340.56;5085947;28;20115;-72
2023/07/31 02:49:25;;;;;;;26.93;9.90;;;;;;;16.95;100.00;129194.31;5086206;28;20112;-72
2023/07/31 02:51:50;;;;;;;36.13;9.73;;;;;;;16.91;100.00;130970.56;5083794;28;20491;-72
2023/07/31 02:54:16;;;;;;;28.60;8.40;;;;;;;16.98;100.00;132055.56;5082015;28;20035;-72
2023/07/31 02:56:41;;;;;;;34.47;8.77;;;;;;;16.94;100.00;135618.84;5080357;28;20074;-72
2023/07/31 02:59:07;;;;;;;38.50;9.80;;;;;;;16.87;100.00;138460.53;5084556;28;20028;-73
2023/07/31 03:01:32;;;;;;;35.53;9.63;;;;;;;16.87;100.00;141680.09;5069522;28;20330;-72
2023/07/31 03:03:57;;;;;;;27.03;8.77;;;;;;;16.84;100.00;147378.13;5082517;28;20109;-72
2023/07/31 03:06:23;;;;;;;36.80;10.63;;;;;;;16.84;100.00;149344.72;5090167;28;20458;-71
2023/07/31 03:08:48;;;;;;;34.23;8.90;;;;;;;16.88;100.00;150404.88;5071004;28;20364;-71
2023/07/31 03:11:14;;;;;;;28.83;9.77;;;;;;;16.82;100.00;149462.94;5086340;28;20459;-72
2023/07/31 03:13:39;;;;;;;33.87;9.00;;;;;;;16.80;100.00;145970.94;5066149;28;20546;-72
2023/07/31 03:16:04;;;;;;;29.73;9.20;;;;;;;16.88;100.00;145260.28;5077068;28;20063;-71
2023/07/31 03:18:30;;;;;;;29.80;9.10;;;;;;;16.86;100.00;147064.03;5081731;28;20111;-70
2023/07/31 03:20:55;;;;;;;25.53;9.17;;;;;;;16.82;100.00;146321.09;5086474;28;20040;-71
2023/07/31 03:23:20;;;;;;;28.20;9.37;;;;;;;16.79;100.00;144522.47;5087370;28;20055;-71
2023/07/31 03:25:57;;;;;;;32.13;8.97;;;;;;;16.76;100.00;144516.44;5083399;28;20101;-71
2023/07/31 03:28:22;;;;;;;27.40;9.13;;;;;;;16.80;100.00;149042.03;5082398;28;20024;-70
2023/07/31 03:30:47;;;;;;;25.53;9.30;;;;;;;16.77;100.00;151297.09;5069179;28;20508;-71
2023/07/31 03:33:13;;;;;;;31.33;9.10;;;;;;;16.80;100.00;152828.69;5083419;28;20055;-71
2023/07/31 03:35:38;;;;;;;25.70;8.47;;;;;;;16.79;100.00;154511.97;5070868;28;20032;-71
2023/07/31 03:38:04;;;;;;;24.17;8.30;;;;;;;16.79;100.00;154346.59;5080915;28;20111;-72
2023/07/31 03:40:30;;;;;;;31.70;8.40;;;;;;;16.75;100.00;153409.94;5079989;28;20059;-71
2023/07/31 03:42:56;;;;;;;;;;;;;;;16.77;100.00;151888.13;5061406;28;20426;-72
2023/07/31 03:45:21;;;;;;;25.83;7.85;;;;;;;16.76;100.00;151786.25;5086738;28;19912;-70
2023/07/31 03:47:46;;;;;;;28.53;7.67;;;;;;;16.74;100.00;150739.28;5085644;28;20115;-72
2023/07/31 03:50:12;;;;;;;22.87;8.23;;;;;;;16.75;100.00;148846.41;5071517;28;20055;-72
2023/07/31 03:52:37;;;;;;;29.73;8.00;;;;;;;16.77;100.00;151724.38;5081327;28;20052;-71
2023/07/31 03:55:03;;;;;;;31.70;8.33;;;;;;;16.76;100.00;151045.25;5081750;28;20080;-72
2023/07/31 03:57:28;;;;;;;27.90;7.80;;;;;;;16.76;100.00;148225.94;5084992;28;20478;-71
2023/07/31 03:59:54;;;;;;;23.20;6.90;;;;;;;16.76;100.00;140580.00;5079660;28;20032;-73
2023/07/31 04:02:19;;;;;;;24.20;7.40;;;;;;;16.72;100.00;134496.66;5082598;28;20042;-73
2023/07/31 04:04:45;;;;;;;27.63;8.53;;;;;;;16.69;100.00;128782.75;5084376;28;20039;-71
2023/07/31 04:07:10;;;;;;;22.53;6.80;;;;;;;16.68;100.00;126642.09;5084964;28;20024;-73
2023/07/31 04:09:35;;;;;;;25.27;7.13;;;;;;;16.68;100.00;122367.34;5076279;28;20108;-72
2023/07/31 04:12:01;;;;;;;21.43;7.03;;;;;;;16.67;100.00;117030.56;5086624;28;20054;-72
2023/07/31 04:14:26;;;;;;;22.67;6.40;;;;;;;16.69;100.00;115256.34;5085894;28;20157;-74
2023/07/31 04:16:52;;;;;;;25.97;7.47;;;;;;;16.69;100.00;112769.72;5085519;28;20032;-74
2023/07/31 04:19:17;;;;;;;23.70;7.47;;;;;;;16.65;100.00;107793.81;5080983;28;20369;-73
2023/07/31 04:21:43;;;;;;;22.53;6.67;;;;;;;16.65;100.00;105312.75;5081360;28;20916;-73
2023/07/31 04:24:09;;;;;;;28.30;7.63;;;;;;;16.61;100.00;102116.25;5068773;28;20024;-73
2023/07/31 04:26:34;;;;;;;33.93;6.97;;;;;;;16.62;100.00;97870.31;5084293;28;20059;-74
2023/07/31 04:28:59;;;;;;;24.57;6.93;;;;;;;16.56;100.00;89026.38;5080270;28;20032;-74
2023/07/31 04:31:27;;;;;;;24.80;6.90;;;;;;;16.58;100.00;83033.00;5068370;28;20436;-74
2023/07/31 04:33:52;;;;;;;25.38;6.95;;;;;;;16.56;100.00;76339.88;5088113;28;20400;-74
2023/07/31 04:36:18;;;;;;;21.50;6.30;;;;;;;16.60;100.00;70718.13;5083213;28;20035;-74
2023/07/31 04:38:43;;;;;;;27.97;8.33;;;;;;;16.55;100.00;67551.16;5070812;28;20556;-74
2023/07/31 04:41:10;;;;;;;17.80;6.73;;;;;;;16.57;100.00;65447.38;5067010;28;20062;-73
2023/07/31 04:43:38;;;;;;;;;;;;;;;16.52;100.00;64740.72;5061660;28;20514;-73
2023/07/31 04:46:04;;;;;;;24.38;7.38;;;;;;;16.55;100.00;63340.34;5068898;28;19972;-74
2023/07/31 04:48:30;;;;;;;26.88;7.57;;;;;;;16.46;100.00;62980.63;5086702;28;20057;-74
2023/07/31 04:50:55;;;;;;;37.00;8.57;;;;;;;16.49;100.00;63333.94;5084998;28;20434;-74
2023/07/31 04:53:21;;;;;;;31.60;8.20;;;;;;;16.50;100.00;62984.34;5081820;28;20036;-74
2023/07/31 04:55:46;;;;;;;28.17;7.90;;;;;;;16.45;100.00;62628.94;5084307;28;20085;-72
2023/07/31 04:58:11;;;;;;;24.87;7.47;;;;;;;16.44;100.00;62276.78;5088494;28;20028;-74
2023/07/31 05:00:37;;;;;;;18.17;6.77;;;;;;;16.47;100.00;61228.88;5084048;28;20025;-72
2023/07/31 05:03:02;;;;;;;21.13;7.07;;;;;;;16.41;100.00;59820.59;5072433;28;20032;-72
2023/07/31 05:05:28;;;;;;;21.33;6.53;;;;;;;16.37;100.00;58416.09;5072215;28;20046;-72
2023/07/31 05:07:53;;;;;;;19.90;6.53;;;;;;;16.37;100.00;55265.69;5089280;28;20073;-73
2023/07/31 05:10:18;;;;;;;20.17;6.43;;;;;;;16.35;100.00;53165.03;5087936;28;20024;-72
2023/07/31 05:12:44;;;;;;;19.97;6.97;;;;;;;16.39;100.00;51070.41;5072816;28;20050;-73
2023/07/31 05:15:09;;;;;;;19.37;6.57;;;;;;;16.37;100.00;49321.38;5069121;28;20024;-72
2023/07/31 05:17:35;;;;;;;19.27;7.23;;;;;;;16.40;100.00;47228.50;5072912;28;20028;-73
2023/07/31 05:20:00;;;;;;;21.33;6.40;;;;;;;16.38;100.00;45829.94;5086207;28;20524;-74
2023/07/31 05:22:26;;;;;;;18.37;6.27;;;;;;;16.36;100.00;43734.56;5085843;28;20024;-73
2023/07/31 05:24:51;;;;;;;12.60;5.37;;;;;;;16.41;100.00;41645.81;5086654;28;20028;-73
2023/07/31 05:27:18;;;;;;;15.83;5.93;;;;;;;16.38;100.00;40597.69;5083388;28;20126;-73
2023/07/31 05:29:44;;;;;;;17.00;5.88;;;;;;;16.39;100.00;39204.16;5086908;28;20028;-73
2023/07/31 05:32:10;;;;;;;15.52;5.28;;;;;;;16.43;100.00;38161.09;5072832;28;20038;-73
2023/07/31 05:34:35;;;;;;;17.90;5.43;;;;;;;16.41;100.00;37811.41;5087860;28;20492;-73
2023/07/31 05:37:00;;;;;;;13.57;5.70;;;;;;;16.43;100.00;35375.00;5087977;28;20028;-73
2023/07/31 05:39:26;;;;;;;17.37;6.80;;;;;;;16.42;100.00;35026.25;5090461;28;20177;-73
2023/07/31 05:41:51;;;;;;;14.07;5.67;;;;;;;16.46;100.00;33635.97;5073703;28;20034;-73
2023/07/31 05:44:17;;;;;;;9.47;4.93;;;;;;;16.51;100.00;32943.06;5086337;28;20027;-73
2023/07/31 05:46:42;;;;;;;12.00;4.90;;;;;;;16.51;100.00;32943.06;5084186;28;20395;-73
2023/07/31 05:49:07;;;;;;;14.13;5.37;;;;;;;16.52;100.00;32595.34;5071094;28;20024;-73
2023/07/31 05:51:33;;;;;;;10.03;5.23;;;;;;;16.54;100.00;31900.56;5082044;28;20094;-73
2023/07/31 05:53:58;;;;;;;12.17;5.70;;;;;;;16.58;100.00;31554.81;5085654;28;20024;-73
2023/07/31 05:56:24;;;;;;;14.43;5.73;;;;;;;16.56;100.00;31901.66;5069450;28;20028;-73
2023/07/31 05:58:50;;;;;;;13.90;6.00;;;;;;;16.59;100.00;31207.75;5085266;28;20038;-73
2023/07/31 06:01:17;;;;;;;16.02;6.80;;;;;;;16.62;100.00;31905.25;5087327;28;20016;-73
2023/07/31 06:03:43;;;;;;;;;;;;;;;16.68;100.00;31560.56;5072112;28;20073;-72
2023/07/31 06:06:09;;;;;;;21.20;6.18;;;;;;;16.74;100.00;31911.84;5082133;28;20375;-73
2023/07/31 06:08:34;;;;;;;14.87;5.83;;;;;;;16.74;100.00;32607.72;5083907;28;20055;-73
2023/07/31 06:11:00;;;;;;;18.97;6.27;;;;;;;16.69;100.00;35390.50;5086274;28;20048;-73
2023/07/31 06:13:25;;;;;;;17.83;6.47;;;;;;;16.70;100.00;29822.06;5081976;28;20050;-72
2023/07/31 06:15:50;;;;;;;18.60;6.93;;;;;;;16.73;100.00;29823.38;5069462;28;20039;-73
2023/07/31 06:18:16;;;;;;;19.83;6.40;;;;;;;16.79;100.00;29826.72;5084659;28;20487;-73
2023/07/31 06:20:42;;;;;;;20.47;6.23;;;;;;;16.83;100.00;29828.78;5083332;28;20042;-74
2023/07/31 06:23:07;;;;;;;11.10;5.47;;;;;;;16.87;100.00;30178.81;5087021;28;20589;-73
2023/07/31 06:25:36;;;;;;;15.50;5.47;;;;;;;16.93;100.00;30529.69;5084926;28;20142;-73
2023/07/31 06:28:01;;;;;;;16.73;5.57;;;;;;;16.91;100.00;30528.91;5084752;28;20036;-73
2023/07/31 06:30:26;;;;;;;21.33;5.90;;;;;;;16.95;100.00;30530.75;5083739;28;20363;-73
2023/07/31 06:32:52;;;;;;;19.63;6.10;;;;;;;16.93;100.00;30878.00;5088985;28;20032;-73
2023/07/31 06:35:17;;;;;;;12.33;5.37;;;;;;;16.95;100.00;29835.00;5080919;28;20078;-71
2023/07/31 06:37:44;;;;;;;14.37;5.57;;;;;;;16.96;100.00;29139.34;5085740;28;20483;-73
2023/07/31 06:40:10;;;;;;;14.05;5.88;;;;;;;16.99;100.00;27749.38;5083874;28;20111;-73
2023/07/31 06:42:35;;;;;;;15.00;5.93;;;;;;;16.99;100.00;26706.06;5084879;28;20562;-73
2023/07/31 06:45:02;;;;;;;10.33;4.73;;;;;;;17.01;100.00;26359.50;5085295;28;20032;-72
2023/07/31 06:47:27;;;;;;;13.20;4.68;;;;;;;17.01;100.00;26011.81;5084583;28;20054;-73
2023/07/31 06:50:05;;;;;;;12.93;4.93;;;;;;;17.05;100.00;24970.69;5071511;28;20040;-73
2023/07/31 06:52:31;;;;;;;13.55;4.78;;;;;;;17.01;100.00;25664.16;5086204;28;20028;-72
2023/07/31 06:55:17;;;;;;;10.40;4.33;;;;;;;17.07;100.00;25319.19;5082821;28;20070;-73
2023/07/31 06:57:42;;;;;;;8.98;4.50;;;;;;;17.05;100.00;25665.72;5085013;28;20327;-73
2023/07/31 07:00:08;;;;;;;10.00;4.53;;;;;;;17.03;100.00;24622.03;5085426;28;20059;-73
2023/07/31 07:02:34;;;;;;;8.17;3.80;;;;;;;17.03;100.00;25317.22;5071629;28;20544;-74
2023/07/31 07:05:00;;;;;;;8.57;3.83;;;;;;;17.06;100.00;24275.97;5086024;28;20056;-73
2023/07/31 07:07:26;;;;;;;;;;;;;;;17.13;100.00;24278.97;5089396;28;20043;-72
2023/07/31 07:09:51;;;;;;;13.02;3.78;;;;;;;17.13;100.00;24973.97;5086688;28;19915;-72
2023/07/31 07:12:17;;;;;;;12.33;3.93;;;;;;;17.12;100.00;24973.53;5085821;28;20050;-71
2023/07/31 07:14:42;;;;;;;6.10;3.70;;;;;;;17.15;100.00;25670.22;5084547;28;20395;-74
2023/07/31 07:17:08;;;;;;;5.77;3.47;;;;;;;17.10;100.00;25667.97;5083882;28;20102;-73
2023/07/31 07:19:34;;;;;;;14.40;3.43;;;;;;;17.23;100.00;25326.06;5081952;28;20099;-73
2023/07/31 07:22:01;;;;;;;6.88;3.50;;;;;;;17.27;100.00;26371.22;5085640;28;20059;-74
2023/07/31 07:24:27;;;;;;;10.32;3.60;;;;;;;17.27;100.00;27067.00;5086697;28;20024;-73
2023/07/31 07:26:52;;;;;;;10.53;3.53;;;;;;;17.29;100.00;28111.84;5086018;28;20052;-73
2023/07/31 07:29:17;;;;;;;5.57;2.97;;;;;;;17.29;100.00;29156.03;5087892;28;20035;-73
2023/07/31 07:31:43;;;;;;;6.67;3.57;;;;;;;17.36;100.00;29507.97;5089963;28;20055;-74
2023/07/31 07:34:08;;;;;;;7.40;3.73;;;;;;;17.31;100.00;30201.53;5083727;28;20513;-73
2023/07/31 07:36:34;;;;;;;9.73;3.27;;;;;;;17.37;100.00;29856.44;5065378;28;20024;-74
2023/07/31 07:39:00;;;;;;;6.80;3.50;;;;;;;17.36;100.00;29856.19;5086112;28;20055;-74
2023/07/31 07:41:25;;;;;;;12.70;3.40;;;;;;;17.39;100.00;30902.28;5067955;28;20020;-75
2023/07/31 07:43:51;;;;;;;5.83;3.20;;;;;;;17.36;100.00;30204.13;5081263;28;20028;-74
2023/07/31 07:46:17;;;;;;;7.75;3.80;;;;;;;17.39;100.00;29857.47;5085031;28;20020;-74
2023/07/31 07:48:42;;;;;;;6.33;3.43;;;;;;;17.44;100.00;29163.88;5085459;28;20028;-74
2023/07/31 07:51:08;;;;;;;5.70;3.50;;;;;;;17.40;100.00;29161.59;5085388;28;20024;-74
2023/07/31 07:53:33;;;;;;;5.07;2.80;;;;;;;17.47;100.00;29165.13;5080545;28;20407;-73
2023/07/31 07:55:58;;;;;;;9.77;3.23;;;;;;;17.54;100.00;28820.44;5083430;28;20099;-73
2023/07/31 07:58:24;;;;;;;6.77;4.20;;;;;;;17.51;100.00;29515.66;5070063;28;20058;-73
2023/07/31 08:00:51;;;;;;;5.93;3.37;;;;;;;17.50;100.00;29166.91;5082966;28;20065;-72
2023/07/31 08:03:16;;;;;;;9.75;3.35;;;;;;;17.50;100.00;30211.72;5084170;28;20394;-73
2023/07/31 08:05:42;;;;;;;10.97;3.20;;;;;;;17.49;100.00;31256.28;5085228;28;20032;-74
2023/07/31 08:08:08;;;;;;;4.57;2.93;;;;;;;17.57;100.00;31260.63;5083152;28;20024;-73
2023/07/31 08:10:33;;;;;;;6.97;3.33;;;;;;;17.55;100.00;31607.72;5083104;28;20039;-73
2023/07/31 08:12:58;;;;;;;7.70;3.93;;;;;;;17.53;100.00;30909.75;5081857;28;20077;-74
2023/07/31 08:15:24;;;;;;;7.53;3.70;;;;;;;17.48;100.00;30558.75;5083847;28;20040;-72
2023/07/31 08:17:50;;;;;;;5.03;3.23;;;;;;;17.51;100.00;30212.00;5085104;28;20175;-72
2023/07/31 08:20:15;;;;;;;6.47;3.57;;;;;;;17.49;100.00;29514.38;5065985;28;20052;-73
2023/07/31 08:22:40;;;;;;;8.00;3.53;;;;;;;17.53;100.00;29516.41;5070652;28;20428;-72
2023/07/31 08:25:06;;;;;;;9.10;3.47;;;;;;;17.49;100.00;29514.63;5075083;28;20032;-72
2023/07/31 08:27:32;;;;;;;5.37;3.70;;;;;;;17.58;100.00;28822.44;5065240;28;20047;-73
2023/07/31 08:29:58;;;;;;;7.80;4.00;;;;;;;17.56;100.00;29866.25;5082538;28;20043;-73
2023/07/31 08:32:24;;;;;;;8.55;3.67;;;;;;;17.61;100.00;30914.31;5085957;28;20047;-73
2023/07/31 08:34:49;;;;;;;6.50;3.53;;;;;;;17.63;100.00;32309.19;5087466;28;20032;-73
2023/07/31 08:37:14;;;;;;;9.80;3.70;;;;;;;17.61;100.00;33353.91;5081784;28;20027;-73
2023/07/31 08:39:40;;;;;;;8.70;4.10;;;;;;;17.61;100.00;34051.56;5087145;28;20426;-72
2023/07/31 08:42:09;;;;;;;13.83;3.80;;;;;;;17.61;100.00;35097.59;5085614;28;20024;-72
2023/07/31 08:44:35;;;;;;;8.07;4.07;;;;;;;17.71;100.00;35103.91;5069115;28;20021;-70
2023/07/31 08:47:01;;;;;;;7.30;3.43;;;;;;;17.72;100.00;36500.28;5088076;28;20115;-71
2023/07/31 08:49:27;;;;;;;8.60;4.20;;;;;;;17.69;100.00;38243.41;5090652;28;20609;-71
2023/07/31 08:51:54;;;;;;;5.60;3.73;;;;;;;17.67;100.00;39289.97;5088035;28;20074;-72
2023/07/31 08:54:20;;;;;;;11.27;4.00;;;;;;;17.69;100.00;39291.31;5089239;28;20470;-72
2023/07/31 08:56:46;;;;;;;7.03;4.30;;;;;;;17.76;100.00;38248.00;5071950;28;20119;-72
2023/07/31 08:59:15;;;;;;;10.07;5.00;;;;;;;17.82;100.00;37902.72;5073511;28;20296;-72
2023/07/31 09:01:46;;;;;;;5.93;3.97;;;;;;;17.91;100.00;36861.31;5087777;28;20312;-72
2023/07/31 09:04:14;;;;;;;10.23;4.60;;;;;;;17.99;100.00;36516.88;5083972;28;20480;-73
2023/07/31 09:06:40;;;;;;;10.20;4.57;;;;;;;17.98;100.00;37913.41;5088858;28;20463;-73
2023/07/31 09:09:06;;;;;;;;;;;;;;;18.06;100.00;40014.75;5069194;28;20032;-73
2023/07/31 09:11:31;;;;;;;12.02;4.57;;;;;;;18.19;100.00;42121.69;5086440;28;19940;-73
2023/07/31 09:13:58;;;;;;;9.97;4.87;;;;;;;18.18;100.00;45620.13;5084559;28;20027;-74
2023/07/31 09:16:31;;;;;;;;;;;;;;;18.17;100.00;50873.88;5080395;28;20036;-72
2023/07/31 09:18:58;;;;;;;9.80;4.40;;;;;;;18.16;100.00;53327.47;5083840;28;19927;-73
2023/07/31 09:21:25;;;;;;;6.43;4.43;;;;;;;18.18;100.00;57189.94;5063675;28;20107;-72
2023/07/31 09:23:53;;;;;;;7.32;3.80;;;;;;;18.31;100.00;59660.97;5087786;28;20328;-73
2023/07/31 09:26:36;;;;;;;11.63;4.75;;;;;;;18.37;100.00;63534.56;5073924;28;20558;-73
2023/07/31 09:29:04;;;;;;;13.30;4.68;;;;;;;18.44;100.00;67413.81;5077862;28;20032;-74
2023/07/31 09:31:43;;;;;;;8.35;4.25;;;;;;;18.53;100.00;71300.72;5089332;28;20382;-73
2023/07/31 09:34:11;;;;;;;6.50;3.90;;;;;;;18.52;100.00;75178.72;5086887;28;20032;-72
2023/07/31 09:36:50;;;;;;;10.18;3.80;;;;;;;18.56;100.00;78361.78;5088527;28;20489;-73
2023/07/31 09:39:17;;;;;;;11.65;3.70;;;;;;;18.40;100.00;80459.25;5084418;28;20059;-72
2023/07/31 09:41:47;;;;;;;8.82;3.83;;;;;;;18.54;100.00;84013.25;5068741;28;20068;-74
2023/07/31 09:44:13;;;;;;;9.38;3.80;;;;;;;18.62;100.00;86147.34;5084433;28;20111;-73
2023/07/31 09:46:39;;;;;;;8.60;4.20;;;;;;;18.73;100.00;89350.91;5085276;28;20530;-73
2023/07/31 09:49:11;;;;;;;10.80;3.60;;;;;;;18.83;100.00;91137.03;5070218;28;20038;-73
2023/07/31 09:51:38;;;;;;;6.70;4.05;;;;;;;18.81;100.00;95390.41;5083595;28;20450;-73
2023/07/31 09:54:15;;;;;;;5.22;3.40;;;;;;;18.92;100.00;93278.34;5085524;28;20519;-74
2023/07/31 09:56:45;;;;;;;6.07;3.63;;;;;;;18.98;100.00;92223.63;5078549;28;20134;-72
2023/07/31 09:59:13;;;;;;;4.53;3.00;;;;;;;18.92;100.00;88316.34;5088553;28;20044;-72
2023/07/31 10:01:41;;;;;;;3.70;3.03;;;;;;;18.88;100.00;83707.19;5084914;28;20044;-72
2023/07/31 10:04:08;;;;;;;5.82;3.50;;;;;;;18.86;100.00;80521.19;5048976;28;20579;-72
2023/07/31 10:06:35;;;;;;;13.45;4.22;;;;;;;18.83;100.00;74865.34;5087688;28;20486;-72
2023/07/31 10:09:05;;;;;;;7.20;3.33;;;;;;;18.72;100.00;75557.53;5087524;28;20027;-72
2023/07/31 10:11:38;;;;;;;5.03;3.53;;;;;;;18.75;100.00;72737.94;5080903;28;20110;-71
2023/07/31 10:14:07;;;;;;;5.45;3.67;;;;;;;18.59;100.00;70249.66;5088106;28;20089;-73
2023/07/31 10:16:34;;;;;;;5.32;3.55;;;;;;;18.66;100.00;66382.56;5065332;28;20020;-72
2023/07/31 10:19:01;;;;;;;6.65;3.70;;;;;;;18.68;100.00;65328.34;5087851;28;20024;-72
2023/07/31 10:21:27;;;;;;;5.47;3.70;;;;;;;18.53;100.00;66368.09;5069810;28;20130;-72
2023/07/31 10:23:54;;;;;;;5.80;3.15;;;;;;;18.58;100.00;65316.84;5069410;28;20056;-73
2023/07/31 10:26:22;;;;;;;7.18;3.75;;;;;;;18.65;100.00;65324.50;5072984;28;20499;-72
2023/07/31 10:28:48;;;;;;;7.57;3.80;;;;;;;18.66;100.00;66030.41;5066325;28;20475;-73
2023/07/31 10:31:16;;;;;;;8.30;3.45;;;;;;;18.64;100.00;69198.16;5083638;28;20097;-72
2023/07/31 10:33:42;;;;;;;6.57;3.58;;;;;;;18.68;100.00;69555.28;5065632;28;20031;-72
2023/07/31 10:36:18;;;;;;;5.57;3.73;;;;;;;18.64;100.00;70608.09;5068450;28;20038;-72
2023/07/31 10:38:44;;;;;;;9.77;4.45;;;;;;;18.57;100.00;69190.59;5084407;28;20040;-73
2023/07/31 10:41:10;;;;;;;3.87;3.47;;;;;;;18.65;100.00;67085.31;5086947;28;20047;-72
2023/07/31 10:43:39;;;;;;;5.97;3.95;;;;;;;18.57;100.00;71304.88;5065085;28;20510;-73
2023/07/31 10:46:12;;;;;;;7.95;4.40;;;;;;;18.57;100.00;69894.88;5082712;28;20486;-72
2023/07/31 10:48:41;;;;;;;10.50;4.18;;;;;;;18.54;100.00;68129.59;5085839;28;20048;-72
2023/07/31 10:51:12;;;;;;;9.23;4.80;;;;;;;18.55;100.00;66721.88;5072246;28;20032;-72
2023/07/31 10:53:38;;;;;;;12.82;4.63;;;;;;;18.50;100.00;64604.66;5065052;28;20502;-72
2023/07/31 10:56:09;;;;;;;6.65;3.88;;;;;;;18.45;100.00;63543.66;5082937;28;20156;-73
2023/07/31 10:58:34;;;;;;;11.45;3.92;;;;;;;18.40;100.00;59670.03;5065499;28;20395;-73
2023/07/31 11:01:04;;;;;;;5.97;3.50;;;;;;;18.42;100.00;55456.81;5085025;28;20038;-72
2023/07/31 11:03:46;;;;;;;8.68;3.55;;;;;;;18.41;100.00;53350.00;5090473;28;20479;-72
2023/07/31 11:06:12;;;;;;;5.78;4.28;;;;;;;18.42;100.00;51947.56;5084582;28;21528;-72
2023/07/31 11:08:43;;;;;;;4.55;3.00;;;;;;;18.54;100.00;50204.72;5068523;28;20052;-73
2023/07/31 11:11:10;;;;;;;7.95;2.92;;;;;;;18.67;100.00;48111.34;5093330;28;20036;-74
2023/07/31 11:13:44;;;;;;;3.60;2.75;;;;;;;18.58;100.00;50207.69;5070641;28;20540;-73
2023/07/31 11:16:11;;;;;;;6.90;3.53;;;;;;;18.69;100.00;48814.19;5085450;28;20077;-73
2023/07/31 11:18:43;;;;;;;6.65;2.90;;;;;;;18.73;100.00;48466.84;5083738;28;20020;-73
2023/07/31 11:21:12;;;;;;;2.70;2.50;;;;;;;18.75;100.00;47767.25;5063951;28;20462;-72